68R weather

Public forecast

Using degrees Fahrenheit for public forecast. Weather courtesy of forecast.io.

Closest aviation weather report (METAR) to Hamp Airport

Closest report is Gratiot Community Airport, 6.8 nm (12.5 km) SE. Retrieved 2020/08/09 17:35 UTC (0 seconds ago):

KAMN 091735Z AUTO 19007G14KT 10SM CLR 30/21 A3005 RMK AO2 T03010210

Closest aviation forecast (TAF) to Hamp Airport

Closest forecast is MBS International Airport, 32.4 nm (60.1 km) ENE. Retrieved 2020/08/09 12:36 UTC (5 hours ago):

TAF KMBS 091135Z 0912/1012 24010KT P6SM SCT045 SCT120 BKN250 TEMPO 0914/0916 4SM TSRA OVC030CB FM100100 21006KT P6SM FEW050 SCT150